Time;durP1;ratioP1;P1;durP2;ratioP2;P2;SDS_P1;SDS_P2;PMS_P1;PMS_P2;Temp;Humidity;BMP_temperature;BMP_pressure;BME280_temperature;BME280_humidity;BME280_pressure;Samples;Min_cycle;Max_cycle;Signal;HPM_P1;HPM_P2
2022/11/27 00:01:43;;;;;;;23.67;7.80;;;7.80;99.90;;;;;;5073278;28;20602;-76
2022/11/27 00:04:10;;;;;;;19.95;7.70;;;7.80;99.90;;;;;;5072235;28;20218;-76
2022/11/27 00:06:38;;;;;;;32.60;8.38;;;7.80;99.90;;;;;;5063854;28;20236;-75
2022/11/27 00:09:07;;;;;;;27.60;7.57;;;7.80;99.90;;;;;;5060855;28;20265;-81
2022/11/27 00:11:33;;;;;;;30.23;8.30;;;7.80;99.90;;;;;;5072010;28;20183;-77
2022/11/27 00:13:59;;;;;;;24.35;8.20;;;7.70;99.90;;;;;;5071873;28;20178;-75
2022/11/27 00:16:26;;;;;;;20.63;7.68;;;7.80;99.90;;;;;;5067991;28;20189;-76
2022/11/27 00:18:52;;;;;;;31.05;8.45;;;7.80;99.90;;;;;;5072852;28;20210;-77
2022/11/27 00:21:30;;;;;;;20.00;7.88;;;7.80;99.90;;;;;;5070361;28;20212;-75
2022/11/27 00:23:57;;;;;;;25.20;8.13;;;7.70;99.90;;;;;;5084205;28;20614;-75
2022/11/27 00:26:24;;;;;;;30.08;7.65;;;7.80;99.90;;;;;;5064660;28;20178;-75
2022/11/27 00:28:50;;;;;;;23.77;7.93;;;7.70;99.90;;;;;;5069140;28;20236;-76
2022/11/27 00:31:29;;;;;;;24.95;7.45;;;7.70;99.90;;;;;;5068764;28;20542;-77
2022/11/27 00:33:56;;;;;;;26.30;8.02;;;7.70;99.90;;;;;;5070966;28;20240;-77
2022/11/27 00:36:22;;;;;;;32.25;8.23;;;7.70;99.90;;;;;;5069613;28;20178;-77
2022/11/27 00:38:48;;;;;;;18.92;7.70;;;7.70;99.90;;;;;;5067221;28;20323;-77
2022/11/27 00:41:22;;;;;;;28.20;8.23;;;7.70;99.90;;;;;;5073815;28;23078;-77
2022/11/27 00:43:49;;;;;;;22.88;7.70;;;7.60;99.90;;;;;;5073123;28;20171;-77
2022/11/27 00:46:16;;;;;;;26.48;7.93;;;7.60;99.90;;;;;;5072064;28;20278;-81
2022/11/27 00:48:43;;;;;;;23.10;7.97;;;7.60;99.90;;;;;;5062176;28;20188;-80
2022/11/27 00:51:15;;;;;;;22.67;7.85;;;7.60;99.90;;;;;;5072127;28;20610;-77
2022/11/27 00:53:42;;;;;;;22.05;7.70;;;7.60;99.90;;;;;;5059202;28;20172;-77
2022/11/27 00:56:08;;;;;;;19.02;7.57;;;7.50;99.90;;;;;;5065897;28;20185;-77
2022/11/27 00:58:34;;;;;;;23.73;8.05;;;7.50;99.90;;;;;;5070626;28;20235;-77
2022/11/27 01:01:02;;;;;;;21.33;7.88;;;7.50;99.90;;;;;;5066291;28;20563;-76
2022/11/27 01:03:29;;;;;;;23.38;8.00;;;7.50;99.90;;;;;;5069309;28;20175;-76
2022/11/27 01:05:55;;;;;;;23.52;8.20;;;7.50;99.90;;;;;;5073168;28;20273;-76
2022/11/27 01:08:21;;;;;;;24.30;9.25;;;7.50;99.90;;;;;;5065792;28;20189;-80
2022/11/27 01:10:55;;;;;;;21.52;8.10;;;7.50;99.90;;;;;;5061581;28;20190;-80
2022/11/27 01:13:30;;;;;;;20.92;7.88;;;7.50;99.90;;;;;;5067113;28;20258;-77
2022/11/27 01:16:12;;;;;;;27.88;8.00;;;7.40;99.90;;;;;;5056285;28;20170;-77
2022/11/27 01:18:40;;;;;;;22.88;7.85;;;7.40;99.90;;;;;;5070726;28;20198;-77
2022/11/27 01:21:06;;;;;;;26.00;8.70;;;7.30;99.90;;;;;;5089342;28;20183;-74
2022/11/27 01:23:32;;;;;;;22.38;7.60;;;7.40;99.90;;;;;;5065312;28;20644;-77
2022/11/27 01:26:03;;;;;;;21.42;7.45;;;7.40;99.90;;;;;;5065611;28;20257;-77
2022/11/27 01:28:28;;;;;;;25.25;7.95;;;7.40;99.90;;;;;;5065389;28;20525;-77
2022/11/27 01:30:55;;;;;;;25.13;8.57;;;7.40;99.90;;;;;;5057367;28;20191;-77
2022/11/27 01:33:20;;;;;;;24.92;8.70;;;7.30;99.90;;;;;;5064931;28;20229;-78
2022/11/27 01:35:57;;;;;;;22.65;8.40;;;7.30;99.90;;;;;;5060306;28;20631;-80
2022/11/27 01:38:24;;;;;;;26.75;8.05;;;7.20;99.90;;;;;;5067332;28;20218;-76
2022/11/27 01:41:04;;;;;;;24.25;7.75;;;7.30;99.90;;;;;;5073597;28;20282;-77
2022/11/27 01:43:40;;;;;;;25.00;7.60;;;7.30;99.90;;;;;;5071376;28;20180;-77
2022/11/27 01:46:27;;;;;;;21.05;7.30;;;7.30;99.90;;;;;;5066522;28;20258;-81
2022/11/27 01:49:15;;;;;;;18.73;7.40;;;7.30;99.90;;;;;;5068097;28;20233;-76
2022/11/27 01:51:45;;;;;;;18.67;8.10;;;7.20;99.90;;;;;;5073269;28;20219;-77
2022/11/27 01:54:13;;;;;;;21.23;7.57;;;7.20;99.90;;;;;;5070210;28;20662;-77
2022/11/27 01:56:40;;;;;;;22.55;8.02;;;7.20;99.90;;;;;;5059002;28;20187;-77
2022/11/27 01:59:06;;;;;;;19.10;7.43;;;7.20;99.90;;;;;;5058412;28;20257;-77
2022/11/27 02:01:32;;;;;;;19.58;7.97;;;7.20;99.90;;;;;;5068403;28;20214;-78
2022/11/27 02:04:00;;;;;;;20.80;7.07;;;7.20;99.90;;;;;;5069631;28;20673;-77
2022/11/27 02:06:26;;;;;;;24.95;7.40;;;7.20;99.90;;;;;;5081465;28;20179;-77
2022/11/27 02:08:53;;;;;;;22.58;7.95;;;7.10;99.90;;;;;;5061610;28;20190;-77
2022/11/27 02:11:41;;;;;;;21.33;8.05;;;7.10;99.90;;;;;;5059008;28;20187;-77
2022/11/27 02:14:20;;;;;;;20.98;7.68;;;7.10;99.90;;;;;;5071320;28;20175;-76
2022/11/27 02:17:13;;;;;;;22.23;7.82;;;7.10;99.90;;;;;;5071003;28;20171;-81
2022/11/27 02:20:26;;;;;;;21.13;8.05;;;7.10;99.90;;;;;;5058943;28;20266;-77
2022/11/27 02:23:19;;;;;;;21.55;8.15;;;7.10;99.90;;;;;;5061813;28;20197;-76
2022/11/27 02:26:30;;;;;;;18.70;6.93;;;7.10;99.90;;;;;;5071435;28;20175;-77
2022/11/27 02:28:56;;;;;;;21.30;8.02;;;7.10;99.90;;;;;;5059818;28;20170;-82
2022/11/27 02:31:50;;;;;;;19.17;6.97;;;7.10;99.90;;;;;;5069140;28;20180;-76
2022/11/27 02:34:35;;;;;;;20.25;7.43;;;7.10;99.90;;;;;;5086548;28;20240;-77
2022/11/27 02:37:04;;;;;;;23.10;8.25;;;7.00;99.90;;;;;;5070696;28;20654;-77
2022/11/27 02:39:36;;;;;;;27.92;8.40;;;7.10;99.90;;;;;;5058083;28;20187;-80
2022/11/27 02:42:16;;;;;;;24.40;7.95;;;7.10;99.90;;;;;;5081913;28;20533;-77
2022/11/27 02:44:48;;;;;;;20.20;7.47;;;7.10;99.90;;;;;;5070056;28;20259;-77
2022/11/27 02:47:14;;;;;;;16.20;7.07;;;7.10;99.90;;;;;;5070212;28;20355;-77
2022/11/27 02:49:43;;;;;;;17.88;7.57;;;7.10;99.90;;;;;;5058146;28;20179;-77
2022/11/27 02:52:11;;;;;;;16.98;6.63;;;7.10;99.90;;;;;;5060864;28;20254;-77
2022/11/27 02:54:40;;;;;;;18.52;7.40;;;7.10;99.90;;;;;;5066447;28;20266;-76
2022/11/27 02:57:07;;;;;;;18.52;7.40;;;7.10;99.90;;;;;;5058665;28;20231;-78
2022/11/27 02:59:36;;;;;;;21.20;7.05;;;7.20;99.90;;;;;;5062477;28;20190;-78
2022/11/27 03:02:07;;;;;;;18.88;7.28;;;7.20;99.90;;;;;;5063967;28;20183;-79
2022/11/27 03:04:38;;;;;;;18.48;6.93;;;7.20;99.90;;;;;;5064276;28;20267;-78
2022/11/27 03:07:11;;;;;;;21.08;7.03;;;7.20;99.90;;;;;;5058347;28;20178;-75
2022/11/27 03:09:42;;;;;;;24.58;8.38;;;7.20;99.90;;;;;;5069572;28;20200;-75
2022/11/27 03:12:09;;;;;;;18.10;7.40;;;7.30;99.90;;;;;;5071169;28;20618;-75
2022/11/27 03:14:37;;;;;;;20.70;6.85;;;7.30;99.90;;;;;;5057201;28;20170;-75
2022/11/27 03:17:30;;;;;;;16.85;6.65;;;7.30;99.90;;;;;;5060419;28;20631;-75
2022/11/27 03:20:19;;;;;;;19.80;7.32;;;7.30;99.90;;;;;;5064435;28;20202;-75
2022/11/27 03:22:45;;;;;;;20.80;7.78;;;7.30;99.90;;;;;;5067383;28;20273;-75
2022/11/27 03:25:11;;;;;;;23.02;7.20;;;7.30;99.90;;;;;;5072287;28;20626;-75
2022/11/27 03:27:43;;;;;;;18.67;7.07;;;7.30;99.90;;;;;;5065444;28;20654;-79
2022/11/27 03:30:10;;;;;;;19.23;6.57;;;7.30;99.90;;;;;;5072352;28;20187;-75
2022/11/27 03:32:36;;;;;;;19.23;6.82;;;7.40;99.90;;;;;;5070961;28;20653;-76
2022/11/27 03:35:04;;;;;;;18.15;6.68;;;7.30;99.90;;;;;;5066386;28;20649;-75
2022/11/27 03:37:29;;;;;;;27.65;7.32;;;7.30;99.90;;;;;;5070304;28;20669;-75
2022/11/27 03:39:55;;;;;;;19.42;7.03;;;7.40;99.90;;;;;;5075264;28;20187;-76
2022/11/27 03:42:27;;;;;;;25.13;6.90;;;7.30;99.90;;;;;;5073323;28;20529;-75
2022/11/27 03:45:08;;;;;;;20.00;6.75;;;7.40;99.90;;;;;;5065030;28;20174;-77
2022/11/27 03:47:43;;;;;;;14.40;6.10;;;7.40;99.90;;;;;;5080636;28;20548;-75
2022/11/27 03:50:30;;;;;;;12.52;6.38;;;7.40;99.90;;;;;;5064611;28;20224;-76
2022/11/27 03:53:20;;;;;;;19.90;7.30;;;7.40;99.90;;;;;;5074372;28;20231;-75
2022/11/27 03:56:05;;;;;;;16.52;6.53;;;7.40;99.90;;;;;;5063273;28;20327;-79
2022/11/27 03:58:37;;;;;;;17.98;6.43;;;7.40;99.90;;;;;;5066944;28;20209;-78
2022/11/27 04:01:07;;;;;;;17.17;7.07;;;7.30;99.90;;;;;;5073675;28;20215;-75
2022/11/27 04:03:34;;;;;;;20.92;7.40;;;7.40;99.90;;;;;;5069627;28;20664;-76
2022/11/27 04:06:00;;;;;;;14.85;6.57;;;7.40;99.90;;;;;;5060264;28;20226;-75
2022/11/27 04:08:26;;;;;;;17.08;6.90;;;7.40;99.90;;;;;;5061442;28;20177;-75
2022/11/27 04:10:52;;;;;;;15.80;6.35;;;7.40;99.90;;;;;;5084180;28;20702;-76
2022/11/27 04:13:17;;;;;;;16.55;6.90;;;7.30;99.90;;;;;;5072519;28;20563;-76
2022/11/27 04:15:43;;;;;;;19.67;6.25;;;7.30;99.90;;;;;;5070198;28;20179;-75
2022/11/27 04:18:09;;;;;;;13.48;6.07;;;7.30;99.90;;;;;;5073141;28;20207;-75
2022/11/27 04:20:34;;;;;;;13.73;5.80;;;7.30;99.90;;;;;;5073674;28;20183;-75
2022/11/27 04:23:00;;;;;;;13.20;6.05;;;7.30;99.90;;;;;;5073686;28;20206;-75
2022/11/27 04:25:26;;;;;;;17.02;7.00;;;7.30;99.90;;;;;;5067712;28;20185;-75
2022/11/27 04:27:52;;;;;;;19.15;6.30;;;7.30;99.90;;;;;;5058549;28;20180;-77
2022/11/27 04:30:18;;;;;;;13.35;6.10;;;7.30;99.90;;;;;;5064621;28;20187;-77
2022/11/27 04:32:43;;;;;;;16.58;6.38;;;7.30;99.90;;;;;;5073362;28;20182;-77
2022/11/27 04:35:09;;;;;;;11.52;5.78;;;7.30;99.90;;;;;;5079849;28;20183;-77
2022/11/27 04:37:36;;;;;;;15.52;6.63;;;7.30;99.90;;;;;;5060205;28;20277;-77
2022/11/27 04:40:02;;;;;;;13.65;5.93;;;7.20;99.90;;;;;;5074832;28;20183;-77
2022/11/27 04:42:28;;;;;;;18.15;6.50;;;7.30;99.90;;;;;;5071891;28;20183;-76
2022/11/27 04:44:54;;;;;;;18.27;6.80;;;7.20;99.90;;;;;;5071390;28;20658;-76
2022/11/27 04:47:20;;;;;;;17.40;6.45;;;7.20;99.90;;;;;;5063607;28;20192;-79
2022/11/27 04:49:45;;;;;;;17.58;6.00;;;7.20;99.90;;;;;;5059257;28;20190;-75
2022/11/27 04:52:11;;;;;;;21.25;6.43;;;7.20;99.90;;;;;;5061944;28;20186;-75
2022/11/27 04:54:37;;;;;;;19.40;6.15;;;7.20;99.90;;;;;;5069621;28;20186;-75
2022/11/27 04:57:03;;;;;;;15.98;6.13;;;7.20;99.90;;;;;;5074233;28;20174;-75
2022/11/27 04:59:29;;;;;;;14.82;5.68;;;7.20;99.90;;;;;;5072919;28;20217;-75
2022/11/27 05:01:55;;;;;;;16.60;6.25;;;7.20;99.90;;;;;;5073148;28;20206;-79
2022/11/27 05:04:21;;;;;;;18.88;6.22;;;7.20;99.90;;;;;;5071982;28;20187;-75
2022/11/27 05:06:47;;;;;;;11.82;5.88;;;7.20;99.90;;;;;;5090153;28;20174;-75
2022/11/27 05:09:13;;;;;;;13.85;5.70;;;7.10;99.90;;;;;;5052997;28;20194;-75
2022/11/27 05:11:38;;;;;;;17.48;5.88;;;7.10;99.90;;;;;;5063010;28;20182;-75
2022/11/27 05:14:19;;;;;;;21.67;5.97;;;7.10;99.90;;;;;;5072219;28;20654;-75
2022/11/27 05:16:54;;;;;;;13.50;5.50;;;7.10;99.90;;;;;;5089725;28;20178;-75
2022/11/27 05:19:21;;;;;;;19.90;6.00;;;7.10;99.90;;;;;;5061341;28;20205;-75
2022/11/27 05:21:48;;;;;;;19.45;6.05;;;7.10;99.90;;;;;;5073284;28;20219;-75
2022/11/27 05:24:15;;;;;;;13.63;5.47;;;7.10;99.90;;;;;;5068535;28;20335;-78
2022/11/27 05:26:42;;;;;;;14.82;5.75;;;7.10;99.90;;;;;;5062062;28;20182;-75
2022/11/27 05:29:08;;;;;;;15.38;5.68;;;7.00;99.90;;;;;;5063901;28;20251;-82
2022/11/27 05:31:35;;;;;;;19.48;6.25;;;7.00;99.90;;;;;;5055878;28;20248;-77
2022/11/27 05:34:01;;;;;;;19.33;6.18;;;7.00;99.90;;;;;;5072335;28;20210;-76
2022/11/27 05:36:27;;;;;;;15.43;5.40;;;7.00;99.90;;;;;;5068869;28;20211;-75
2022/11/27 05:38:53;;;;;;;14.15;5.57;;;7.00;99.90;;;;;;5065610;28;20210;-76
2022/11/27 05:41:19;;;;;;;13.68;4.97;;;7.00;99.90;;;;;;5071792;28;20185;-75
2022/11/27 05:43:45;;;;;;;13.05;5.65;;;6.90;99.90;;;;;;5072040;28;20184;-76
2022/11/27 05:46:14;;;;;;;17.05;5.70;;;7.00;99.90;;;;;;5072090;28;20179;-75
2022/11/27 05:48:40;;;;;;;16.13;5.38;;;7.00;99.90;;;;;;5070049;28;20552;-75
2022/11/27 05:51:06;;;;;;;17.83;5.50;;;7.00;99.90;;;;;;5057786;28;20186;-78
2022/11/27 05:53:33;;;;;;;11.38;4.70;;;7.00;99.90;;;;;;5068499;28;20182;-75
2022/11/27 05:56:05;;;;;;;14.38;5.13;;;6.90;99.90;;;;;;5073375;28;20179;-75
2022/11/27 05:58:30;;;;;;;11.60;4.50;;;6.90;99.90;;;;;;5066654;28;20210;-76
2022/11/27 06:00:56;;;;;;;12.20;4.82;;;6.90;99.90;;;;;;5062179;28;20353;-79
2022/11/27 06:03:23;;;;;;;13.98;5.18;;;6.90;99.90;;;;;;5065645;28;20178;-75
2022/11/27 06:05:48;;;;;;;15.63;5.38;;;6.90;99.90;;;;;;5085079;28;20253;-76
2022/11/27 06:08:14;;;;;;;14.20;4.75;;;6.90;99.90;;;;;;5079162;28;20693;-76
2022/11/27 06:10:40;;;;;;;11.15;4.85;;;6.90;99.90;;;;;;5066106;28;20190;-82
2022/11/27 06:13:06;;;;;;;19.58;5.20;;;6.90;99.90;;;;;;5069923;28;20692;-76
2022/11/27 06:15:32;;;;;;;14.32;4.90;;;6.90;99.90;;;;;;5070828;28;20224;-75
2022/11/27 06:17:57;;;;;;;15.32;5.10;;;6.90;99.90;;;;;;5069021;28;20713;-74
2022/11/27 06:20:23;;;;;;;13.75;4.97;;;6.90;99.90;;;;;;5062901;28;20231;-79
2022/11/27 06:22:49;;;;;;;16.10;4.85;;;6.90;99.90;;;;;;5065843;28;20179;-75
2022/11/27 06:25:15;;;;;;;15.80;5.45;;;6.90;99.90;;;;;;5065975;28;20174;-77
2022/11/27 06:27:41;;;;;;;17.77;5.25;;;6.90;99.90;;;;;;5071117;28;20182;-77
2022/11/27 06:30:08;;;;;;;16.30;4.95;;;6.90;99.90;;;;;;5071005;28;20182;-76
2022/11/27 06:32:34;;;;;;;16.98;4.93;;;6.90;99.90;;;;;;5059675;28;20277;-76
2022/11/27 06:35:00;;;;;;;18.15;5.07;;;6.90;99.90;;;;;;5060134;28;20713;-77
2022/11/27 06:37:26;;;;;;;15.57;5.18;;;6.90;99.90;;;;;;5061809;28;20267;-77
2022/11/27 06:39:51;;;;;;;12.23;4.53;;;6.90;99.90;;;;;;5057819;28;20190;-82
2022/11/27 06:42:17;;;;;;;17.25;4.60;;;6.90;99.90;;;;;;5063064;28;20186;-75
2022/11/27 06:44:43;;;;;;;19.52;5.10;;;6.90;99.90;;;;;;5065144;28;20231;-76
2022/11/27 06:47:09;;;;;;;17.55;4.50;;;6.90;99.90;;;;;;5060930;28;20718;-76
2022/11/27 06:49:35;;;;;;;12.82;4.40;;;6.90;99.90;;;;;;5068345;28;20200;-75
2022/11/27 06:52:01;;;;;;;9.00;4.45;;;6.90;99.90;;;;;;5064467;28;20273;-76
2022/11/27 06:54:26;;;;;;;14.50;5.28;;;6.90;99.90;;;;;;5077851;28;20191;-76
2022/11/27 06:56:52;;;;;;;13.93;4.30;;;6.90;99.90;;;;;;5072226;28;20190;-78
2022/11/27 06:59:18;;;;;;;13.57;4.25;;;6.90;99.90;;;;;;5070566;28;20218;-77
2022/11/27 07:01:44;;;;;;;13.27;4.43;;;7.00;99.90;;;;;;5055279;28;20579;-77
2022/11/27 07:04:11;;;;;;;13.95;4.63;;;7.00;99.90;;;;;;5069964;28;20204;-76
2022/11/27 07:06:37;;;;;;;8.77;4.47;;;6.90;99.90;;;;;;5063952;28;20234;-77
2022/11/27 07:09:05;;;;;;;8.68;4.65;;;7.00;99.90;;;;;;5062116;28;21133;-77
2022/11/27 07:11:31;;;;;;;12.63;4.22;;;7.00;99.90;;;;;;5063290;28;20167;-77
2022/11/27 07:14:00;;;;;;;14.15;4.85;;;6.90;99.90;;;;;;5065092;28;20626;-76
2022/11/27 07:16:27;;;;;;;15.48;4.90;;;7.00;99.90;;;;;;5063450;28;20178;-77
2022/11/27 07:18:56;;;;;;;13.00;5.10;;;7.00;99.90;;;;;;5058642;28;20214;-83
2022/11/27 07:21:23;;;;;;;14.70;4.43;;;7.00;99.90;;;;;;5066705;28;20727;-76
2022/11/27 07:23:49;;;;;;;12.88;4.38;;;7.00;99.90;;;;;;5068537;28;20241;-76
2022/11/27 07:26:21;;;;;;;14.10;5.05;;;7.00;99.90;;;;;;5064847;28;20259;-76
2022/11/27 07:28:47;;;;;;;13.70;4.57;;;7.00;99.90;;;;;;5072975;28;20631;-75
2022/11/27 07:31:19;;;;;;;13.52;5.15;;;7.00;99.90;;;;;;5073789;28;20204;-75
2022/11/27 07:33:45;;;;;;;13.77;5.47;;;7.00;99.90;;;;;;5071207;28;20261;-75
2022/11/27 07:36:17;;;;;;;14.32;5.20;;;7.00;99.90;;;;;;5068796;28;20203;-76
2022/11/27 07:38:43;;;;;;;11.50;4.80;;;7.00;99.90;;;;;;5069107;28;20653;-76
2022/11/27 07:41:09;;;;;;;13.00;5.15;;;7.00;99.90;;;;;;5060423;28;20182;-76
2022/11/27 07:43:36;;;;;;;10.45;4.47;;;7.00;99.90;;;;;;5058097;28;20191;-76
2022/11/27 07:46:06;;;;;;;19.17;5.70;;;7.00;99.90;;;;;;5055778;28;20627;-78
2022/11/27 07:48:33;;;;;;;11.57;5.10;;;7.00;99.90;;;;;;5067939;28;20192;-77
2022/11/27 07:50:58;;;;;;;13.27;4.78;;;7.00;99.90;;;;;;5069197;28;20210;-79
2022/11/27 07:53:24;;;;;;;14.20;5.50;;;7.00;99.90;;;;;;5057565;28;20265;-78
2022/11/27 07:55:50;;;;;;;12.48;5.30;;;7.00;99.90;;;;;;5058598;28;20166;-79
2022/11/27 07:58:16;;;;;;;10.48;4.90;;;7.00;99.90;;;;;;5062263;28;20224;-77
2022/11/27 08:00:41;;;;;;;12.95;5.15;;;7.00;99.90;;;;;;5075522;28;20526;-76
2022/11/27 08:03:09;;;;;;;17.52;5.70;;;7.00;99.90;;;;;;5073107;28;20182;-76
2022/11/27 08:05:36;;;;;;;15.38;5.60;;;7.00;99.90;;;;;;5086357;28;20249;-76
2022/11/27 08:08:03;;;;;;;14.25;5.60;;;7.00;99.90;;;;;;5078253;28;20230;-77
2022/11/27 08:10:30;;;;;;;18.30;6.00;;;7.00;99.90;;;;;;5060817;28;20206;-76
2022/11/27 08:12:57;;;;;;;14.50;5.80;;;7.00;99.90;;;;;;5060404;28;20175;-76
2022/11/27 08:15:22;;;;;;;12.40;5.60;;;7.10;99.90;;;;;;5063600;28;20190;-76
2022/11/27 08:17:48;;;;;;;13.90;6.03;;;7.10;99.90;;;;;;5072936;28;20222;-75
2022/11/27 08:20:14;;;;;;;15.65;5.55;;;7.10;99.90;;;;;;5072620;28;20189;-76
2022/11/27 08:22:40;;;;;;;13.73;5.90;;;7.10;99.90;;;;;;5069856;28;20193;-78
2022/11/27 08:25:06;;;;;;;15.50;6.03;;;7.10;99.90;;;;;;5073641;28;20630;-77
2022/11/27 08:27:32;;;;;;;9.98;5.57;;;7.10;99.90;;;;;;5073797;28;20186;-76
2022/11/27 08:29:59;;;;;;;12.25;6.30;;;7.10;99.90;;;;;;5066835;28;20306;-76
2022/11/27 08:32:24;;;;;;;16.85;5.65;;;7.10;99.90;;;;;;5061176;28;20201;-75
2022/11/27 08:34:50;;;;;;;14.55;5.47;;;7.10;99.90;;;;;;5074862;28;20269;-75
2022/11/27 08:37:16;;;;;;;15.25;5.53;;;7.10;99.90;;;;;;5072238;28;20183;-75
2022/11/27 08:39:41;;;;;;;13.20;6.10;;;7.10;99.90;;;;;;5074709;28;20266;-76
2022/11/27 08:42:07;;;;;;;13.43;5.68;;;7.10;99.90;;;;;;5069432;28;20197;-80
2022/11/27 08:44:33;;;;;;;14.32;6.22;;;7.20;99.90;;;;;;5056998;28;20525;-76
2022/11/27 08:46:59;;;;;;;14.60;6.28;;;7.10;99.90;;;;;;5072431;28;20300;-78
2022/11/27 08:49:24;;;;;;;12.48;6.38;;;7.10;99.90;;;;;;5062550;28;20218;-76
2022/11/27 08:51:50;;;;;;;17.70;6.88;;;7.10;99.90;;;;;;5068667;28;20718;-77
2022/11/27 08:54:16;;;;;;;16.60;6.43;;;7.10;99.90;;;;;;5072543;28;20665;-77
2022/11/27 08:56:41;;;;;;;16.45;6.55;;;7.10;99.90;;;;;;5074296;28;20470;-79
2022/11/27 08:59:07;;;;;;;13.45;6.55;;;7.10;99.90;;;;;;5066613;28;20242;-78
2022/11/27 09:01:33;;;;;;;16.52;6.75;;;7.20;99.90;;;;;;5069100;28;20221;-76
2022/11/27 09:03:59;;;;;;;16.98;6.88;;;7.10;99.90;;;;;;5080371;28;20182;-75
2022/11/27 09:06:27;;;;;;;12.48;6.15;;;7.10;99.90;;;;;;5057963;28;20222;-80
2022/11/27 09:08:55;;;;;;;13.30;7.03;;;7.10;99.90;;;;;;5058426;28;20170;-75
2022/11/27 09:11:21;;;;;;;16.27;7.22;;;7.10;99.90;;;;;;5059082;28;20174;-75
2022/11/27 09:13:47;;;;;;;15.98;6.88;;;7.10;99.90;;;;;;5059583;28;20194;-77
2022/11/27 09:16:15;;;;;;;19.48;6.60;;;7.20;99.90;;;;;;5069173;28;20273;-75
2022/11/27 09:18:44;;;;;;;15.68;6.93;;;7.20;99.90;;;;;;5072466;28;20290;-75
2022/11/27 09:21:12;;;;;;;13.38;7.45;;;7.20;99.90;;;;;;5073615;28;20194;-75
2022/11/27 09:23:39;;;;;;;15.88;7.15;;;7.20;99.90;;;;;;5060963;28;20179;-78
2022/11/27 09:26:08;;;;;;;16.40;7.13;;;7.20;99.90;;;;;;5071411;28;20255;-75
2022/11/27 09:28:34;;;;;;;15.15;7.53;;;7.20;99.90;;;;;;5072445;28;20182;-75
2022/11/27 09:31:02;;;;;;;16.88;7.00;;;7.20;99.90;;;;;;5072257;28;20187;-75
2022/11/27 09:33:30;;;;;;;17.65;7.63;;;7.20;99.90;;;;;;5066125;28;20199;-79
2022/11/27 09:35:56;;;;;;;16.55;7.30;;;7.20;99.90;;;;;;5065751;28;20182;-75
2022/11/27 09:38:25;;;;;;;19.27;7.88;;;7.20;99.90;;;;;;5072329;28;20305;-75
2022/11/27 09:40:54;;;;;;;17.30;7.57;;;7.20;99.90;;;;;;5073447;28;20198;-75
2022/11/27 09:43:48;;;;;;;16.63;7.70;;;7.20;99.90;;;;;;5070253;28;20178;-78
2022/11/27 09:46:29;;;;;;;16.38;7.20;;;7.20;99.90;;;;;;5062089;28;20195;-75
2022/11/27 09:48:56;;;;;;;10.30;6.50;;;7.20;99.90;;;;;;5071005;28;20298;-75
2022/11/27 09:51:28;;;;;;;15.85;7.03;;;7.20;99.90;;;;;;5090028;28;20190;-76
2022/11/27 09:54:13;;;;;;;19.92;7.85;;;7.10;99.90;;;;;;5070764;28;20293;-75
2022/11/27 09:56:41;;;;;;;18.60;7.32;;;7.20;99.90;;;;;;5055770;28;20182;-80
2022/11/27 09:59:15;;;;;;;14.57;7.25;;;7.20;99.90;;;;;;5062332;28;20321;-75
2022/11/27 10:01:41;;;;;;;19.33;7.97;;;7.20;99.90;;;;;;5062657;28;21143;-75
2022/11/27 10:04:13;;;;;;;19.50;7.82;;;7.20;99.90;;;;;;5069732;28;20194;-75
2022/11/27 10:07:20;;;;;;;18.10;7.50;;;7.20;99.90;;;;;;5092065;28;20230;-75
2022/11/27 10:10:18;;;;;;;21.15;7.57;;;7.20;99.90;;;;;;5010950;28;20212;-75
2022/11/27 10:13:06;;;;;;;17.30;7.75;;;7.20;99.90;;;;;;5067752;28;20666;-75
2022/11/27 10:15:51;;;;;;;19.52;7.40;;;7.20;99.90;;;;;;5073375;28;20166;-75
2022/11/27 10:18:24;;;;;;;16.60;7.90;;;7.20;99.90;;;;;;5071791;28;20202;-75
2022/11/27 10:21:17;;;;;;;20.20;7.93;;;7.20;99.90;;;;;;5071404;28;20167;-76
2022/11/27 10:23:48;;;;;;;16.15;7.43;;;7.30;99.90;;;;;;5043058;28;22121;-76
2022/11/27 10:26:21;;;;;;;17.67;7.85;;;7.20;99.90;;;;;;5062116;28;20206;-75
2022/11/27 10:29:01;;;;;;;29.55;13.02;;;7.20;99.90;;;;;;5057910;28;20190;-75
2022/11/27 10:31:31;;;;;;;17.05;8.15;;;7.20;99.90;;;;;;5071866;28;20197;-76
2022/11/27 10:34:05;;;;;;;19.05;8.15;;;7.20;99.90;;;;;;5069301;28;20182;-76
2022/11/27 10:36:44;;;;;;;16.50;8.00;;;7.20;99.90;;;;;;5072070;28;20657;-75
2022/11/27 10:39:41;;;;;;;18.00;8.02;;;7.20;99.90;;;;;;5070180;28;20344;-76
2022/11/27 10:42:26;;;;;;;18.70;8.07;;;7.20;99.90;;;;;;5070397;28;20205;-76
2022/11/27 10:45:02;;;;;;;20.90;8.23;;;7.20;99.90;;;;;;5062203;28;20219;-75
2022/11/27 10:47:28;;;;;;;15.73;8.18;;;7.20;99.90;;;;;;5070072;28;20182;-76
2022/11/27 10:49:54;;;;;;;20.25;9.25;;;7.20;99.90;;;;;;5070248;28;20260;-75
2022/11/27 10:52:20;;;;;;;16.25;8.70;;;7.20;99.90;;;;;;5070253;28;20186;-78
2022/11/27 10:54:55;;;;;;;17.70;8.63;;;7.20;99.90;;;;;;5074360;28;20175;-75
2022/11/27 10:57:49;;;;;;;17.63;8.30;;;7.20;99.90;;;;;;5069546;28;20178;-74
2022/11/27 11:00:19;;;;;;;14.93;7.70;;;7.20;99.90;;;;;;5070003;28;20191;-74
2022/11/27 11:02:45;;;;;;;18.15;7.50;;;7.20;99.90;;;;;;5082109;28;20210;-75
2022/11/27 11:05:17;;;;;;;17.58;8.38;;;7.20;99.90;;;;;;5058300;28;20309;-75
2022/11/27 11:07:56;;;;;;;18.83;8.15;;;7.20;99.90;;;;;;5068845;28;20622;-76
2022/11/27 11:10:45;;;;;;;19.52;7.47;;;7.20;99.90;;;;;;5071044;28;20636;-75
2022/11/27 11:13:18;;;;;;;17.23;8.32;;;7.20;99.90;;;;;;5060245;28;20191;-75
2022/11/27 11:15:53;;;;;;;19.15;8.40;;;7.20;99.90;;;;;;5059009;28;20262;-77
2022/11/27 11:18:23;;;;;;;19.42;8.85;;;7.20;99.90;;;;;;5059681;28;20553;-76
2022/11/27 11:21:00;;;;;;;15.70;8.35;;;7.20;99.90;;;;;;5070730;28;20555;-75
2022/11/27 11:23:56;;;;;;;18.90;8.23;;;7.20;99.90;;;;;;5082407;28;20627;-75
2022/11/27 11:26:30;;;;;;;20.60;8.30;;;7.20;99.90;;;;;;5057763;28;20186;-75
2022/11/27 11:28:59;;;;;;;16.65;7.78;;;7.20;99.90;;;;;;5057551;28;20194;-75
2022/11/27 11:31:53;;;;;;;17.73;9.23;;;7.10;99.90;;;;;;5070352;28;20256;-75
2022/11/27 11:34:25;;;;;;;13.48;7.95;;;7.20;99.90;;;;;;5068261;28;20688;-75
2022/11/27 11:36:58;;;;;;;19.25;9.10;;;7.20;99.90;;;;;;5069721;28;20209;-76
2022/11/27 11:39:43;;;;;;;15.90;7.47;;;7.20;99.90;;;;;;5069895;28;20233;-75
2022/11/27 11:42:21;;;;;;;15.18;7.88;;;7.20;99.90;;;;;;5068831;28;20189;-75
2022/11/27 11:45:05;;;;;;;16.85;7.75;;;7.20;99.90;;;;;;5071805;28;20239;-76
2022/11/27 11:47:31;;;;;;;15.70;7.60;;;7.20;99.90;;;;;;5057529;28;20386;-75
2022/11/27 11:49:57;;;;;;;20.45;8.48;;;7.20;99.90;;;;;;5076320;28;20182;-79
2022/11/27 11:52:23;;;;;;;16.00;8.45;;;7.20;99.90;;;;;;5089499;28;20186;-76
2022/11/27 11:55:07;;;;;;;16.17;7.70;;;7.20;99.90;;;;;;5073965;28;20163;-77
2022/11/27 11:57:51;;;;;;;18.00;8.10;;;7.20;99.90;;;;;;5068773;28;20205;-75
2022/11/27 12:00:23;;;;;;;16.23;8.00;;;7.20;99.90;;;;;;5074368;28;20653;-75
2022/11/27 12:03:02;;;;;;;18.63;7.80;;;7.20;99.90;;;;;;5067374;28;20201;-75
2022/11/27 12:06:06;;;;;;;16.70;7.93;;;7.20;99.90;;;;;;5073275;28;20225;-75
2022/11/27 12:09:01;;;;;;;13.13;7.97;;;7.20;99.90;;;;;;5059350;28;20548;-75
2022/11/27 12:11:38;;;;;;;16.77;8.48;;;7.10;99.90;;;;;;5066776;28;20213;-75
2022/11/27 12:14:18;;;;;;;13.00;7.80;;;7.10;99.90;;;;;;5072986;28;20202;-75
2022/11/27 12:17:03;;;;;;;13.40;7.60;;;7.20;99.90;;;;;;5074025;28;20253;-75
2022/11/27 12:19:59;;;;;;;19.35;8.05;;;7.20;99.90;;;;;;5062995;28;20214;-75
2022/11/27 12:22:39;;;;;;;18.45;7.65;;;7.20;99.90;;;;;;5067868;28;20248;-74
2022/11/27 12:25:23;;;;;;;13.98;7.50;;;7.20;99.90;;;;;;5062625;28;20190;-75
2022/11/27 12:28:08;;;;;;;13.07;7.88;;;7.20;99.90;;;;;;5073611;28;20189;-75
2022/11/27 12:31:10;;;;;;;18.70;8.43;;;7.20;99.90;;;;;;5075192;28;20191;-74
2022/11/27 12:33:54;;;;;;;22.75;8.05;;;7.20;99.90;;;;;;5058691;28;20228;-75
2022/11/27 12:36:48;;;;;;;14.98;7.60;;;7.20;99.90;;;;;;5054067;28;20175;-75
2022/11/27 12:39:31;;;;;;;15.45;7.97;;;7.20;99.90;;;;;;5072585;28;20202;-75
2022/11/27 12:42:13;;;;;;;13.40;7.65;;;7.20;99.90;;;;;;5072493;28;20637;-78
2022/11/27 12:45:02;;;;;;;19.02;8.60;;;7.20;99.90;;;;;;5057145;28;20186;-75
2022/11/27 12:47:35;;;;;;;15.05;7.72;;;7.20;99.90;;;;;;5064460;28;20194;-75
2022/11/27 12:50:26;;;;;;;17.52;8.95;;;7.20;99.90;;;;;;5074317;28;20174;-75
2022/11/27 12:53:07;;;;;;;15.70;8.88;;;7.20;99.90;;;;;;5071828;28;20179;-75
2022/11/27 12:55:34;;;;;;;15.15;8.95;;;7.30;99.90;;;;;;5068937;28;20186;-75
2022/11/27 12:58:09;;;;;;;16.35;7.82;;;7.20;99.90;;;;;;5071903;28;20271;-75
2022/11/27 13:00:39;;;;;;;16.80;8.18;;;7.30;99.90;;;;;;5073091;28;20190;-75
2022/11/27 13:03:14;;;;;;;15.23;8.25;;;7.30;99.90;;;;;;5072818;28;20650;-75
2022/11/27 13:05:48;;;;;;;16.48;7.97;;;7.30;99.90;;;;;;5067922;28;20305;-79
2022/11/27 13:08:22;;;;;;;14.85;7.72;;;7.30;99.90;;;;;;5062207;28;20273;-75
2022/11/27 13:10:55;;;;;;;16.83;8.10;;;7.20;99.90;;;;;;5074190;28;20253;-75